sensor_id;sensor_type;location;lat;lon;timestamp;pressure;altitude;pressure_sealevel;temperature;humidity
72921;BME280;61064;51.654;5.476;2023-05-02T00:00:30;102029.38;;;12.17;76.02
72921;BME280;61064;51.654;5.476;2023-05-02T00:02:56;102028.47;;;12.15;75.94
72921;BME280;61064;51.654;5.476;2023-05-02T00:05:22;102030.28;;;12.17;75.83
72921;BME280;61064;51.654;5.476;2023-05-02T00:07:48;102040.00;;;12.14;75.86
72921;BME280;61064;51.654;5.476;2023-05-02T00:10:13;102047.03;;;12.10;76.20
72921;BME280;61064;51.654;5.476;2023-05-02T00:12:38;102046.94;;;12.05;75.91
72921;BME280;61064;51.654;5.476;2023-05-02T00:15:04;102049.53;;;12.01;75.94
72921;BME280;61064;51.654;5.476;2023-05-02T00:17:30;102045.03;;;11.97;76.34
72921;BME280;61064;51.654;5.476;2023-05-02T00:19:55;102041.38;;;11.92;76.04
72921;BME280;61064;51.654;5.476;2023-05-02T00:22:21;102049.25;;;11.87;76.01
72921;BME280;61064;51.654;5.476;2023-05-02T00:24:46;102049.16;;;11.83;76.32
72921;BME280;61064;51.654;5.476;2023-05-02T00:27:12;102059.81;;;11.81;76.17
72921;BME280;61064;51.654;5.476;2023-05-02T00:29:38;102059.78;;;11.80;76.21
72921;BME280;61064;51.654;5.476;2023-05-02T00:32:04;102054.38;;;11.77;76.39
72921;BME280;61064;51.654;5.476;2023-05-02T00:34:30;102050.78;;;11.76;76.39
72921;BME280;61064;51.654;5.476;2023-05-02T00:36:56;102056.97;;;11.74;76.50
72921;BME280;61064;51.654;5.476;2023-05-02T00:39:21;102054.31;;;11.74;76.49
72921;BME280;61064;51.654;5.476;2023-05-02T00:41:47;102062.22;;;11.72;76.62
72921;BME280;61064;51.654;5.476;2023-05-02T00:44:12;102062.19;;;11.69;76.66
72921;BME280;61064;51.654;5.476;2023-05-02T00:46:37;102062.09;;;11.64;76.76
72921;BME280;61064;51.654;5.476;2023-05-02T00:49:03;102062.00;;;11.61;76.86
72921;BME280;61064;51.654;5.476;2023-05-02T00:51:28;102062.06;;;11.63;76.75
72921;BME280;61064;51.654;5.476;2023-05-02T00:53:55;102065.63;;;11.63;76.66
72921;BME280;61064;51.654;5.476;2023-05-02T00:56:21;102062.00;;;11.61;76.83
72921;BME280;61064;51.654;5.476;2023-05-02T00:58:47;102068.16;;;11.57;76.62
72921;BME280;61064;51.654;5.476;2023-05-02T01:06:52;102070.72;;;11.54;77.05
72921;BME280;61064;51.654;5.476;2023-05-02T01:09:43;102062.72;;;11.54;76.92
72921;BME280;61064;51.654;5.476;2023-05-02T01:12:26;102057.34;;;11.51;76.72
72921;BME280;61064;51.654;5.476;2023-05-02T01:14:54;102068.88;;;11.50;76.75
72921;BME280;61064;51.654;5.476;2023-05-02T01:17:23;102053.69;;;11.46;76.91
72921;BME280;61064;51.654;5.476;2023-05-02T01:19:52;102060.75;;;11.44;76.91
72921;BME280;61064;51.654;5.476;2023-05-02T01:22:20;102051.84;;;11.44;76.86
72921;BME280;61064;51.654;5.476;2023-05-02T01:27:33;102051.84;;;11.44;77.03
72921;BME280;61064;51.654;5.476;2023-05-02T01:30:02;102052.78;;;11.46;76.88
72921;BME280;61064;51.654;5.476;2023-05-02T01:32:30;102064.31;;;11.45;77.14
72921;BME280;61064;51.654;5.476;2023-05-02T01:34:58;102063.34;;;11.43;77.13
72921;BME280;61064;51.654;5.476;2023-05-02T01:37:26;102066.91;;;11.42;77.21
72921;BME280;61064;51.654;5.476;2023-05-02T01:39:54;102076.72;;;11.44;77.28
72921;BME280;61064;51.654;5.476;2023-05-02T01:42:21;102066.03;;;11.43;77.21
72921;BME280;61064;51.654;5.476;2023-05-02T01:44:49;102073.19;;;11.45;77.59
72921;BME280;61064;51.654;5.476;2023-05-02T01:47:18;102073.19;;;11.45;77.16
72921;BME280;61064;51.654;5.476;2023-05-02T01:49:45;102078.53;;;11.45;77.22
72921;BME280;61064;51.654;5.476;2023-05-02T01:52:12;102086.47;;;11.44;77.44
72921;BME280;61064;51.654;5.476;2023-05-02T01:54:38;102093.63;;;11.45;77.44
72921;BME280;61064;51.654;5.476;2023-05-02T01:57:06;102091.81;;;11.44;77.42
72921;BME280;61064;51.654;5.476;2023-05-02T01:59:33;102093.56;;;11.43;77.72
72921;BME280;61064;51.654;5.476;2023-05-02T02:02:01;102085.56;;;11.42;77.48
72921;BME280;61064;51.654;5.476;2023-05-02T02:04:27;102089.94;;;11.40;77.68
72921;BME280;61064;51.654;5.476;2023-05-02T02:06:57;102100.63;;;11.40;77.87
72921;BME280;61064;51.654;5.476;2023-05-02T02:09:26;102098.00;;;11.41;77.90
72921;BME280;61064;51.654;5.476;2023-05-02T02:11:58;102096.22;;;11.42;77.98
72921;BME280;61064;51.654;5.476;2023-05-02T02:14:33;102103.34;;;11.43;78.00
72921;BME280;61064;51.654;5.476;2023-05-02T02:17:00;102097.91;;;11.38;77.95
72921;BME280;61064;51.654;5.476;2023-05-02T02:19:35;102092.56;;;11.38;78.16
72921;BME280;61064;51.654;5.476;2023-05-02T02:22:04;102092.56;;;11.38;78.05
72921;BME280;61064;51.654;5.476;2023-05-02T02:24:31;102114.94;;;11.45;78.25
72921;BME280;61064;51.654;5.476;2023-05-02T02:26:57;102098.75;;;11.37;78.17
72921;BME280;61064;51.654;5.476;2023-05-02T02:29:23;102106.91;;;11.43;78.35
72921;BME280;61064;51.654;5.476;2023-05-02T02:31:48;102106.84;;;11.40;78.41
72921;BME280;61064;51.654;5.476;2023-05-02T02:34:14;102115.69;;;11.39;78.33
72921;BME280;61064;51.654;5.476;2023-05-02T02:39:18;102118.44;;;11.42;78.52
72921;BME280;61064;51.654;5.476;2023-05-02T02:51:00;102114.09;;;11.46;78.57
72921;BME280;61064;51.654;5.476;2023-05-02T02:56:26;102120.22;;;11.43;78.63
72921;BME280;61064;51.654;5.476;2023-05-02T02:59:13;102127.31;;;11.43;78.74
72921;BME280;61064;51.654;5.476;2023-05-02T03:01:42;102128.22;;;11.43;78.88
72921;BME280;61064;51.654;5.476;2023-05-02T03:04:11;102133.53;;;11.42;78.80
72921;BME280;61064;51.654;5.476;2023-05-02T03:06:38;102141.53;;;11.42;79.22
72921;BME280;61064;51.654;5.476;2023-05-02T03:09:03;102138.88;;;11.42;79.13
72921;BME280;61064;51.654;5.476;2023-05-02T03:11:29;102152.19;;;11.43;79.27
72921;BME280;61064;51.654;5.476;2023-05-02T03:13:54;102145.06;;;11.41;79.44
72921;BME280;61064;51.654;5.476;2023-05-02T03:16:37;102160.13;;;11.40;79.58
72921;BME280;61064;51.654;5.476;2023-05-02T03:19:03;102166.28;;;11.38;79.43
72921;BME280;61064;51.654;5.476;2023-05-02T03:21:29;102159.94;;;11.33;79.46
72921;BME280;61064;51.654;5.476;2023-05-02T03:24:01;102159.88;;;11.30;79.62
72921;BME280;61064;51.654;5.476;2023-05-02T03:26:28;102171.34;;;11.27;79.77
72921;BME280;61064;51.654;5.476;2023-05-02T03:28:54;102167.78;;;11.25;79.61
72921;BME280;61064;51.654;5.476;2023-05-02T03:31:19;102180.13;;;11.23;79.94
72921;BME280;61064;51.654;5.476;2023-05-02T03:33:46;102183.72;;;11.23;79.93
72921;BME280;61064;51.654;5.476;2023-05-02T03:36:11;102182.00;;;11.25;79.98
72921;BME280;61064;51.654;5.476;2023-05-02T03:38:37;102196.16;;;11.24;80.10
72921;BME280;61064;51.654;5.476;2023-05-02T03:41:02;102192.56;;;11.22;79.90
72921;BME280;61064;51.654;5.476;2023-05-02T03:43:30;102194.25;;;11.19;79.80
72921;BME280;61064;51.654;5.476;2023-05-02T03:45:56;102196.97;;;11.22;79.79
72921;BME280;61064;51.654;5.476;2023-05-02T03:48:21;102202.25;;;11.19;79.84
72921;BME280;61064;51.654;5.476;2023-05-02T03:50:47;102193.31;;;11.17;79.41
72921;BME280;61064;51.654;5.476;2023-05-02T03:53:13;102194.09;;;11.13;79.32
72921;BME280;61064;51.654;5.476;2023-05-02T03:55:40;102196.81;;;11.14;79.23
72921;BME280;61064;51.654;5.476;2023-05-02T03:58:06;102207.31;;;11.10;78.81
72921;BME280;61064;51.654;5.476;2023-05-02T04:00:32;102203.63;;;11.05;78.67
72921;BME280;61064;51.654;5.476;2023-05-02T04:03:00;102212.47;;;11.02;78.52
72921;BME280;61064;51.654;5.476;2023-05-02T04:05:25;102219.50;;;11.00;78.10
72921;BME280;61064;51.654;5.476;2023-05-02T04:07:51;102218.53;;;10.97;77.85
72921;BME280;61064;51.654;5.476;2023-05-02T04:10:16;102214.78;;;10.90;78.03
72921;BME280;61064;51.654;5.476;2023-05-02T04:12:42;102221.75;;;10.85;77.55
72921;BME280;61064;51.654;5.476;2023-05-02T04:15:11;102223.47;;;10.83;77.39
72921;BME280;61064;51.654;5.476;2023-05-02T04:17:37;102227.88;;;10.82;77.33
72921;BME280;61064;51.654;5.476;2023-05-02T04:20:03;102226.91;;;10.79;77.13
72921;BME280;61064;51.654;5.476;2023-05-02T04:22:29;102230.38;;;10.76;76.82
72921;BME280;61064;51.654;5.476;2023-05-02T04:24:55;102242.75;;;10.74;76.85
72921;BME280;61064;51.654;5.476;2023-05-02T04:27:20;102247.97;;;10.71;76.77
72921;BME280;61064;51.654;5.476;2023-05-02T04:29:49;102254.94;;;10.66;76.60
72921;BME280;61064;51.654;5.476;2023-05-02T04:32:15;102259.34;;;10.64;76.57
72921;BME280;61064;51.654;5.476;2023-05-02T04:34:41;102259.19;;;10.60;76.35
72921;BME280;61064;51.654;5.476;2023-05-02T04:37:06;102259.97;;;10.56;76.34
72921;BME280;61064;51.654;5.476;2023-05-02T04:39:32;102262.63;;;10.56;76.36
72921;BME280;61064;51.654;5.476;2023-05-02T04:41:58;102265.16;;;10.51;76.18
72921;BME280;61064;51.654;5.476;2023-05-02T04:44:24;102275.88;;;10.54;76.17
72921;BME280;61064;51.654;5.476;2023-05-02T04:46:49;102261.53;;;10.49;76.05
72921;BME280;61064;51.654;5.476;2023-05-02T04:49:15;102273.13;;;10.51;76.22
72921;BME280;61064;51.654;5.476;2023-05-02T04:51:40;102278.47;;;10.51;76.00
72921;BME280;61064;51.654;5.476;2023-05-02T04:54:09;102274.00;;;10.50;75.83
72921;BME280;61064;51.654;5.476;2023-05-02T04:56:34;102291.66;;;10.48;75.90
72921;BME280;61064;51.654;5.476;2023-05-02T04:59:00;102293.47;;;10.49;75.91
72921;BME280;61064;51.654;5.476;2023-05-02T05:01:31;102279.94;;;10.41;75.69
72921;BME280;61064;51.654;5.476;2023-05-02T05:03:57;102296.94;;;10.47;75.63
72921;BME280;61064;51.654;5.476;2023-05-02T05:06:24;102295.00;;;10.41;75.65
72921;BME280;61064;51.654;5.476;2023-05-02T05:08:50;102298.56;;;10.41;75.39
72921;BME280;61064;51.654;5.476;2023-05-02T05:11:15;102312.81;;;10.43;75.41
72921;BME280;61064;51.654;5.476;2023-05-02T05:13:41;102317.28;;;10.45;75.35
72921;BME280;61064;51.654;5.476;2023-05-02T05:16:09;102308.19;;;10.38;75.43
72921;BME280;61064;51.654;5.476;2023-05-02T05:18:35;102316.47;;;10.47;75.12
72921;BME280;61064;51.654;5.476;2023-05-02T05:21:08;102320.97;;;10.50;74.80
72921;BME280;61064;51.654;5.476;2023-05-02T05:23:34;102321.94;;;10.52;74.73
72921;BME280;61064;51.654;5.476;2023-05-02T05:26:13;102320.13;;;10.51;74.56
72921;BME280;61064;51.654;5.476;2023-05-02T05:28:39;102327.22;;;10.50;74.28
72921;BME280;61064;51.654;5.476;2023-05-02T05:31:12;102333.56;;;10.55;74.18
72921;BME280;61064;51.654;5.476;2023-05-02T05:33:38;102335.31;;;10.55;73.90
72921;BME280;61064;51.654;5.476;2023-05-02T05:36:22;102336.16;;;10.52;73.48
72921;BME280;61064;51.654;5.476;2023-05-02T05:38:47;102344.13;;;10.52;73.56
72921;BME280;61064;51.654;5.476;2023-05-02T05:41:12;102348.44;;;10.49;73.57
72921;BME280;61064;51.654;5.476;2023-05-02T05:43:38;102345.97;;;10.55;73.40
72921;BME280;61064;51.654;5.476;2023-05-02T05:46:03;102350.63;;;10.62;73.14
72921;BME280;61064;51.654;5.476;2023-05-02T05:48:28;102357.22;;;10.74;73.12
72921;BME280;61064;51.654;5.476;2023-05-02T05:50:54;102358.44;;;10.86;72.83
72921;BME280;61064;51.654;5.476;2023-05-02T05:53:19;102357.03;;;10.98;72.33
72921;BME280;61064;51.654;5.476;2023-05-02T05:55:45;102368.00;;;11.09;72.35
72921;BME280;61064;51.654;5.476;2023-05-02T05:58:11;102362.09;;;11.20;72.21
72921;BME280;61064;51.654;5.476;2023-05-02T06:00:37;102372.34;;;11.37;71.90
72921;BME280;61064;51.654;5.476;2023-05-02T06:03:04;102371.75;;;11.47;71.82
72921;BME280;61064;51.654;5.476;2023-05-02T06:05:29;102369.25;;;11.54;71.39
72921;BME280;61064;51.654;5.476;2023-05-02T06:07:56;102381.69;;;11.54;70.98
72921;BME280;61064;51.654;5.476;2023-05-02T06:10:24;102388.81;;;11.55;71.09
72921;BME280;61064;51.654;5.476;2023-05-02T06:12:50;102382.53;;;11.51;71.28
72921;BME280;61064;51.654;5.476;2023-05-02T06:15:16;102387.72;;;11.47;71.31
72921;BME280;61064;51.654;5.476;2023-05-02T06:17:41;102392.09;;;11.45;71.25
72921;BME280;61064;51.654;5.476;2023-05-02T06:20:07;102390.28;;;11.42;71.39
72921;BME280;61064;51.654;5.476;2023-05-02T06:22:33;102395.44;;;11.38;71.40
72921;BME280;61064;51.654;5.476;2023-05-02T06:24:58;102399.84;;;11.36;71.42
72921;BME280;61064;51.654;5.476;2023-05-02T06:27:25;102412.28;;;11.35;71.80
72921;BME280;61064;51.654;5.476;2023-05-02T06:29:50;102406.91;;;11.34;71.73
72921;BME280;61064;51.654;5.476;2023-05-02T06:32:16;102414.09;;;11.36;71.86
72921;BME280;61064;51.654;5.476;2023-05-02T06:34:42;102420.41;;;11.40;72.04
72921;BME280;61064;51.654;5.476;2023-05-02T06:37:07;102413.47;;;11.46;71.90
72921;BME280;61064;51.654;5.476;2023-05-02T06:39:32;102427.00;;;11.54;71.66
72921;BME280;61064;51.654;5.476;2023-05-02T06:41:58;102431.59;;;11.59;71.63
72921;BME280;61064;51.654;5.476;2023-05-02T06:44:24;102439.75;;;11.65;71.32
72921;BME280;61064;51.654;5.476;2023-05-02T06:46:49;102435.31;;;11.64;71.03
72921;BME280;61064;51.654;5.476;2023-05-02T06:49:15;102449.56;;;11.66;70.69
72921;BME280;61064;51.654;5.476;2023-05-02T06:51:40;102454.84;;;11.65;70.42
72921;BME280;61064;51.654;5.476;2023-05-02T06:54:06;102458.41;;;11.64;70.45
72921;BME280;61064;51.654;5.476;2023-05-02T06:56:31;102456.66;;;11.64;70.35
72921;BME280;61064;51.654;5.476;2023-05-02T06:58:57;102443.31;;;11.64;70.49
72921;BME280;61064;51.654;5.476;2023-05-02T07:01:22;102461.34;;;11.73;70.27
72921;BME280;61064;51.654;5.476;2023-05-02T07:03:48;102456.78;;;11.69;70.11
72921;BME280;61064;51.654;5.476;2023-05-02T07:06:13;102468.50;;;11.74;70.09
72921;BME280;61064;51.654;5.476;2023-05-02T07:08:38;102464.06;;;11.75;69.97
72921;BME280;61064;51.654;5.476;2023-05-02T07:11:04;102472.25;;;11.81;69.80
72921;BME280;61064;51.654;5.476;2023-05-02T07:13:29;102469.75;;;11.87;69.79
72921;BME280;61064;51.654;5.476;2023-05-02T07:15:54;102480.59;;;11.94;69.82
72921;BME280;61064;51.654;5.476;2023-05-02T07:18:20;102478.16;;;12.02;69.51
72921;BME280;61064;51.654;5.476;2023-05-02T07:20:46;102490.06;;;12.16;69.36
72921;BME280;61064;51.654;5.476;2023-05-02T07:23:12;102494.78;;;12.26;69.35
72921;BME280;61064;51.654;5.476;2023-05-02T07:25:37;102492.31;;;12.34;69.09
72921;BME280;61064;51.654;5.476;2023-05-02T07:28:04;102495.84;;;12.33;68.90
72921;BME280;61064;51.654;5.476;2023-05-02T07:30:29;102501.91;;;12.27;68.55
72921;BME280;61064;51.654;5.476;2023-05-02T07:32:55;102500.75;;;12.16;68.24
72921;BME280;61064;51.654;5.476;2023-05-02T07:35:20;102506.69;;;12.06;68.12
72921;BME280;61064;51.654;5.476;2023-05-02T07:37:46;102519.88;;;12.00;67.93
72921;BME280;61064;51.654;5.476;2023-05-02T07:40:11;102510.78;;;11.93;67.97
72921;BME280;61064;51.654;5.476;2023-05-02T07:42:36;102514.25;;;11.89;67.79
72921;BME280;61064;51.654;5.476;2023-05-02T07:45:02;102519.63;;;11.91;67.99
72921;BME280;61064;51.654;5.476;2023-05-02T07:47:28;102524.19;;;11.95;67.58
72921;BME280;61064;51.654;5.476;2023-05-02T07:49:54;102519.75;;;11.95;67.31
72921;BME280;61064;51.654;5.476;2023-05-02T07:52:20;102523.22;;;11.93;67.23
72921;BME280;61064;51.654;5.476;2023-05-02T07:54:47;102528.56;;;11.93;66.92
72921;BME280;61064;51.654;5.476;2023-05-02T07:57:13;102525.75;;;11.87;66.97
72921;BME280;61064;51.654;5.476;2023-05-02T07:59:39;102533.69;;;11.85;66.55
72921;BME280;61064;51.654;5.476;2023-05-02T08:02:04;102522.00;;;11.82;66.44
72921;BME280;61064;51.654;5.476;2023-05-02T08:04:29;102536.38;;;11.85;66.53
72921;BME280;61064;51.654;5.476;2023-05-02T08:06:55;102522.34;;;11.92;66.70
72921;BME280;61064;51.654;5.476;2023-05-02T08:09:20;102527.09;;;12.04;66.12
72921;BME280;61064;51.654;5.476;2023-05-02T08:11:46;102535.41;;;12.15;66.06
72921;BME280;61064;51.654;5.476;2023-05-02T08:14:12;102531.16;;;12.23;65.66
72921;BME280;61064;51.654;5.476;2023-05-02T08:16:37;102534.22;;;12.36;65.32
72921;BME280;61064;51.654;5.476;2023-05-02T08:19:03;102540.69;;;12.46;64.95
72921;BME280;61064;51.654;5.476;2023-05-02T08:21:28;102544.47;;;12.56;64.60
72921;BME280;61064;51.654;5.476;2023-05-02T08:23:58;102544.75;;;12.66;64.18
72921;BME280;61064;51.654;5.476;2023-05-02T08:26:24;102548.56;;;12.76;63.89
72921;BME280;61064;51.654;5.476;2023-05-02T08:28:50;102554.06;;;12.83;63.61
72921;BME280;61064;51.654;5.476;2023-05-02T08:31:16;102547.06;;;12.87;63.22
72921;BME280;61064;51.654;5.476;2023-05-02T08:33:41;102555.28;;;12.96;63.51
72921;BME280;61064;51.654;5.476;2023-05-02T08:36:14;102556.34;;;13.03;63.14
72921;BME280;61064;51.654;5.476;2023-05-02T08:38:41;102550.28;;;13.11;62.85
72921;BME280;61064;51.654;5.476;2023-05-02T08:41:16;102557.69;;;13.21;62.39
72921;BME280;61064;51.654;5.476;2023-05-02T08:43:43;102554.38;;;13.33;62.13
72921;BME280;61064;51.654;5.476;2023-05-02T08:46:10;102556.38;;;13.43;61.78
72921;BME280;61064;51.654;5.476;2023-05-02T08:48:38;102556.53;;;13.49;61.49
72921;BME280;61064;51.654;5.476;2023-05-02T08:51:08;102571.81;;;13.55;61.13
72921;BME280;61064;51.654;5.476;2023-05-02T08:53:35;102575.44;;;13.57;60.91
72921;BME280;61064;51.654;5.476;2023-05-02T08:56:08;102580.78;;;13.57;60.89
72921;BME280;61064;51.654;5.476;2023-05-02T08:58:38;102579.78;;;13.52;60.61
72921;BME280;61064;51.654;5.476;2023-05-02T09:01:09;102588.75;;;13.54;60.81
72921;BME280;61064;51.654;5.476;2023-05-02T09:03:37;102588.81;;;13.57;60.97
72921;BME280;61064;51.654;5.476;2023-05-02T09:06:10;102588.94;;;13.63;60.69
72921;BME280;61064;51.654;5.476;2023-05-02T09:08:40;102592.69;;;13.72;60.54
72921;BME280;61064;51.654;5.476;2023-05-02T09:11:08;102595.47;;;13.77;60.37
72921;BME280;61064;51.654;5.476;2023-05-02T09:13:36;102602.63;;;13.78;60.10
72921;BME280;61064;51.654;5.476;2023-05-02T09:16:09;102601.72;;;13.78;60.20
72921;BME280;61064;51.654;5.476;2023-05-02T09:18:40;102608.13;;;13.84;60.12
72921;BME280;61064;51.654;5.476;2023-05-02T09:21:08;102614.41;;;13.86;60.07
72921;BME280;61064;51.654;5.476;2023-05-02T09:23:36;102610.94;;;13.90;60.24
72921;BME280;61064;51.654;5.476;2023-05-02T09:26:10;102618.00;;;13.87;60.11
72921;BME280;61064;51.654;5.476;2023-05-02T09:31:11;102612.56;;;13.84;59.85
72921;BME280;61064;51.654;5.476;2023-05-02T09:33:37;102624.56;;;14.02;59.56
72921;BME280;61064;51.654;5.476;2023-05-02T09:36:04;102629.28;;;14.14;59.15
72921;BME280;61064;51.654;5.476;2023-05-02T09:38:31;102615.34;;;14.32;59.03
72921;BME280;61064;51.654;5.476;2023-05-02T09:40:58;102612.25;;;14.55;58.79
72921;BME280;61064;51.654;5.476;2023-05-02T09:43:23;102618.22;;;14.90;58.51
72921;BME280;61064;51.654;5.476;2023-05-02T09:45:59;102619.53;;;15.17;57.80
72921;BME280;61064;51.654;5.476;2023-05-02T09:48:29;102626.81;;;15.24;57.30
72921;BME280;61064;51.654;5.476;2023-05-02T09:50:55;102632.03;;;15.15;57.07
72921;BME280;61064;51.654;5.476;2023-05-02T09:53:23;102628.28;;;15.05;56.84
72921;BME280;61064;51.654;5.476;2023-05-02T09:56:03;102637.16;;;15.01;56.58
72921;BME280;61064;51.654;5.476;2023-05-02T09:58:29;102627.31;;;14.98;56.70
72921;BME280;61064;51.654;5.476;2023-05-02T10:00:56;102631.03;;;15.08;56.60
72921;BME280;61064;51.654;5.476;2023-05-02T10:03:23;102621.59;;;15.33;56.40
72921;BME280;61064;51.654;5.476;2023-05-02T10:05:49;102629.00;;;15.51;55.88
72921;BME280;61064;51.654;5.476;2023-05-02T10:08:15;102637.31;;;15.64;55.58
72921;BME280;61064;51.654;5.476;2023-05-02T10:10:46;102636.44;;;15.65;55.28
72921;BME280;61064;51.654;5.476;2023-05-02T10:13:12;102637.28;;;15.63;54.75
72921;BME280;61064;51.654;5.476;2023-05-02T10:15:42;102643.50;;;15.59;54.14
72921;BME280;61064;51.654;5.476;2023-05-02T10:18:14;102644.41;;;15.61;54.14
72921;BME280;61064;51.654;5.476;2023-05-02T10:21:05;102643.63;;;15.69;54.05
72921;BME280;61064;51.654;5.476;2023-05-02T10:23:32;102641.91;;;15.74;54.05
72921;BME280;61064;51.654;5.476;2023-05-02T10:25:58;102649.09;;;15.75;53.62
72921;BME280;61064;51.654;5.476;2023-05-02T10:28:28;102646.28;;;15.68;52.92
72921;BME280;61064;51.654;5.476;2023-05-02T10:30:54;102655.22;;;15.65;53.16
72921;BME280;61064;51.654;5.476;2023-05-02T10:33:21;102653.38;;;15.63;52.92
72921;BME280;61064;51.654;5.476;2023-05-02T10:35:47;102653.34;;;15.61;52.96
72921;BME280;61064;51.654;5.476;2023-05-02T10:38:15;102647.09;;;15.62;52.46
72921;BME280;61064;51.654;5.476;2023-05-02T10:40:48;102644.47;;;15.64;52.52
72921;BME280;61064;51.654;5.476;2023-05-02T10:43:21;102655.28;;;15.70;52.73
72921;BME280;61064;51.654;5.476;2023-05-02T10:45:48;102646.50;;;15.83;52.56
72921;BME280;61064;51.654;5.476;2023-05-02T10:48:14;102653.94;;;16.04;52.10
72921;BME280;61064;51.654;5.476;2023-05-02T10:50:48;102647.84;;;16.17;51.43
72921;BME280;61064;51.654;5.476;2023-05-02T10:53:32;102655.00;;;16.18;51.06
72921;BME280;61064;51.654;5.476;2023-05-02T10:56:20;102639.84;;;16.21;51.37
72921;BME280;61064;51.654;5.476;2023-05-02T10:58:51;102651.66;;;16.36;51.30
72921;BME280;61064;51.654;5.476;2023-05-02T11:03:57;102656.22;;;16.44;50.56
72921;BME280;61064;51.654;5.476;2023-05-02T11:06:27;102657.19;;;16.51;50.02
72921;BME280;61064;51.654;5.476;2023-05-02T11:11:43;102670.84;;;16.66;49.60
72921;BME280;61064;51.654;5.476;2023-05-02T11:14:10;102664.66;;;16.76;49.40
72921;BME280;61064;51.654;5.476;2023-05-02T11:22:32;102673.84;;;17.01;48.93
72921;BME280;61064;51.654;5.476;2023-05-02T11:24:58;102671.31;;;17.15;48.73
72921;BME280;61064;51.654;5.476;2023-05-02T11:30:09;102652.56;;;17.28;47.23
72921;BME280;61064;51.654;5.476;2023-05-02T11:35:19;102662.56;;;17.43;47.09
72921;BME280;61064;51.654;5.476;2023-05-02T11:37:59;102647.34;;;17.50;47.05
72921;BME280;61064;51.654;5.476;2023-05-02T11:40:26;102662.72;;;17.67;46.70
72921;BME280;61064;51.654;5.476;2023-05-02T11:42:52;102661.03;;;17.77;46.25
72921;BME280;61064;51.654;5.476;2023-05-02T11:45:17;102663.72;;;17.80;46.05
72921;BME280;61064;51.654;5.476;2023-05-02T11:47:43;102656.56;;;17.90;46.17
72921;BME280;61064;51.654;5.476;2023-05-02T11:50:13;102660.25;;;17.99;45.96
72921;BME280;61064;51.654;5.476;2023-05-02T11:52:43;102656.69;;;18.09;45.88
72921;BME280;61064;51.654;5.476;2023-05-02T11:55:13;102663.88;;;18.12;45.69
72921;BME280;61064;51.654;5.476;2023-05-02T11:57:39;102680.94;;;18.12;45.33
72921;BME280;61064;51.654;5.476;2023-05-02T12:00:07;102678.22;;;18.06;45.32
72921;BME280;61064;51.654;5.476;2023-05-02T12:02:40;102669.22;;;18.03;45.36
72921;BME280;61064;51.654;5.476;2023-05-02T12:05:10;102677.34;;;18.12;45.11
72921;BME280;61064;51.654;5.476;2023-05-02T12:07:38;102666.59;;;18.18;44.36
72921;BME280;61064;51.654;5.476;2023-05-02T12:10:05;102674.69;;;18.15;44.38
72921;BME280;61064;51.654;5.476;2023-05-02T12:12:31;102675.56;;;18.11;44.31
72921;BME280;61064;51.654;5.476;2023-05-02T12:14:57;102680.97;;;18.15;44.07
72921;BME280;61064;51.654;5.476;2023-05-02T12:17:22;102689.97;;;18.20;44.16
72921;BME280;61064;51.654;5.476;2023-05-02T12:19:50;102683.72;;;18.35;43.93
72921;BME280;61064;51.654;5.476;2023-05-02T12:22:16;102682.88;;;18.47;43.88
72921;BME280;61064;51.654;5.476;2023-05-02T12:24:42;102678.44;;;18.62;43.39
72921;BME280;61064;51.654;5.476;2023-05-02T12:27:12;102682.09;;;18.71;43.13
72921;BME280;61064;51.654;5.476;2023-05-02T12:29:39;102690.19;;;18.81;42.99
72921;BME280;61064;51.654;5.476;2023-05-02T12:32:05;102695.59;;;18.77;43.01
72921;BME280;61064;51.654;5.476;2023-05-02T12:34:31;102700.94;;;18.67;42.92
72921;BME280;61064;51.654;5.476;2023-05-02T12:36:57;102692.81;;;18.61;43.04
72921;BME280;61064;51.654;5.476;2023-05-02T12:39:42;102704.50;;;18.59;42.58
72921;BME280;61064;51.654;5.476;2023-05-02T12:42:13;102689.22;;;18.58;42.78
72921;BME280;61064;51.654;5.476;2023-05-02T12:44:40;102705.44;;;18.64;42.38
72921;BME280;61064;51.654;5.476;2023-05-02T12:47:07;102701.75;;;18.53;42.28
72921;BME280;61064;51.654;5.476;2023-05-02T12:52:16;102713.44;;;18.52;42.16
72921;BME280;61064;51.654;5.476;2023-05-02T12:54:41;102715.25;;;18.53;42.29
72921;BME280;61064;51.654;5.476;2023-05-02T12:57:07;102719.81;;;18.66;42.16
72921;BME280;61064;51.654;5.476;2023-05-02T12:59:32;102720.72;;;18.73;42.03
72921;BME280;61064;51.654;5.476;2023-05-02T13:01:58;102721.66;;;18.82;42.02
72921;BME280;61064;51.654;5.476;2023-05-02T13:04:38;102711.78;;;18.92;42.07
72921;BME280;61064;51.654;5.476;2023-05-02T13:07:05;102717.19;;;19.13;42.11
72921;BME280;61064;51.654;5.476;2023-05-02T13:09:31;102704.59;;;19.29;41.94
72921;BME280;61064;51.654;5.476;2023-05-02T13:11:56;102700.13;;;19.46;41.62
72921;BME280;61064;51.654;5.476;2023-05-02T13:14:23;102711.84;;;19.52;41.44
72921;BME280;61064;51.654;5.476;2023-05-02T13:16:49;102707.34;;;19.51;41.34
72921;BME280;61064;51.654;5.476;2023-05-02T13:19:17;102707.34;;;19.47;41.04
72921;BME280;61064;51.654;5.476;2023-05-02T13:21:43;102697.41;;;19.40;40.66
72921;BME280;61064;51.654;5.476;2023-05-02T13:24:08;102704.63;;;19.30;41.11
72921;BME280;61064;51.654;5.476;2023-05-02T13:26:33;102713.63;;;19.28;40.93
72921;BME280;61064;51.654;5.476;2023-05-02T13:28:59;102701.00;;;19.24;41.16
72921;BME280;61064;51.654;5.476;2023-05-02T13:31:24;102709.13;;;19.36;41.20
72921;BME280;61064;51.654;5.476;2023-05-02T13:33:49;102708.22;;;19.40;40.99
72921;BME280;61064;51.654;5.476;2023-05-02T13:36:15;102712.75;;;19.47;40.90